sensor_id;sensor_type;location;lat;lon;timestamp;temperature;humidity
16801;DHT22;8518;53.236;10.384;2023-04-07T00:00:46;5.50;99.90
16801;DHT22;8518;53.236;10.384;2023-04-07T00:06:34;5.50;99.90
16801;DHT22;8518;53.236;10.384;2023-04-07T00:09:03;5.50;99.90
16801;DHT22;8518;53.236;10.384;2023-04-07T00:11:29;5.50;99.90
16801;DHT22;8518;53.236;10.384;2023-04-07T00:17:17;5.40;99.90
16801;DHT22;8518;53.236;10.384;2023-04-07T00:23:05;5.30;99.90
16801;DHT22;8518;53.236;10.384;2023-04-07T00:25:31;5.30;99.90
16801;DHT22;8518;53.236;10.384;2023-04-07T00:27:57;5.30;99.90
16801;DHT22;8518;53.236;10.384;2023-04-07T00:30:22;5.20;99.90
16801;DHT22;8518;53.236;10.384;2023-04-07T00:36:10;5.20;99.90
16801;DHT22;8518;53.236;10.384;2023-04-07T00:38:35;6.40;99.90
16801;DHT22;8518;53.236;10.384;2023-04-07T00:41:01;5.20;99.90
16801;DHT22;8518;53.236;10.384;2023-04-07T00:46:49;5.10;99.90
16801;DHT22;8518;53.236;10.384;2023-04-07T00:52:37;5.00;99.90
16801;DHT22;8518;53.236;10.384;2023-04-07T00:55:04;5.00;99.90
16801;DHT22;8518;53.236;10.384;2023-04-07T00:57:30;5.00;99.90
16801;DHT22;8518;53.236;10.384;2023-04-07T00:59:55;6.80;99.90
16801;DHT22;8518;53.236;10.384;2023-04-07T01:02:22;4.90;99.90
16801;DHT22;8518;53.236;10.384;2023-04-07T01:08:13;4.70;99.90
16801;DHT22;8518;53.236;10.384;2023-04-07T01:10:50;4.80;99.90
16801;DHT22;8518;53.236;10.384;2023-04-07T01:16:42;4.80;99.90
16801;DHT22;8518;53.236;10.384;2023-04-07T01:21:52;4.80;99.90
16801;DHT22;8518;53.236;10.384;2023-04-07T01:27:53;4.70;99.90
16801;DHT22;8518;53.236;10.384;2023-04-07T01:30:27;4.60;99.90
16801;DHT22;8518;53.236;10.384;2023-04-07T01:36:16;4.50;99.90
16801;DHT22;8518;53.236;10.384;2023-04-07T01:42:05;4.50;99.90
16801;DHT22;8518;53.236;10.384;2023-04-07T01:44:32;4.40;99.90
16801;DHT22;8518;53.236;10.384;2023-04-07T01:46:58;4.40;99.90
16801;DHT22;8518;53.236;10.384;2023-04-07T01:49:25;5.60;99.90
16801;DHT22;8518;53.236;10.384;2023-04-07T01:51:52;6.30;99.90
16801;DHT22;8518;53.236;10.384;2023-04-07T01:57:40;4.30;99.90
16801;DHT22;8518;53.236;10.384;2023-04-07T02:03:46;4.20;99.90
16801;DHT22;8518;53.236;10.384;2023-04-07T02:06:18;3.80;99.90
16801;DHT22;8518;53.236;10.384;2023-04-07T02:08:48;2.90;99.90
16801;DHT22;8518;53.236;10.384;2023-04-07T02:11:16;4.20;99.90
16801;DHT22;8518;53.236;10.384;2023-04-07T02:17:05;4.10;99.90
16801;DHT22;8518;53.236;10.384;2023-04-07T02:19:32;4.10;99.90
16801;DHT22;8518;53.236;10.384;2023-04-07T02:22:00;4.10;99.90
16801;DHT22;8518;53.236;10.384;2023-04-07T02:24:27;4.00;99.90
16801;DHT22;8518;53.236;10.384;2023-04-07T02:26:52;4.00;99.90
16801;DHT22;8518;53.236;10.384;2023-04-07T02:29:18;3.90;99.90
16801;DHT22;8518;53.236;10.384;2023-04-07T02:31:43;4.00;99.90
16801;DHT22;8518;53.236;10.384;2023-04-07T02:37:31;4.00;99.90
16801;DHT22;8518;53.236;10.384;2023-04-07T02:39:56;3.70;99.90
16801;DHT22;8518;53.236;10.384;2023-04-07T02:42:22;3.50;99.90
16801;DHT22;8518;53.236;10.384;2023-04-07T02:44:47;3.90;99.90
16801;DHT22;8518;53.236;10.384;2023-04-07T02:47:13;3.80;99.90
16801;DHT22;8518;53.236;10.384;2023-04-07T02:49:38;5.50;99.90
16801;DHT22;8518;53.236;10.384;2023-04-07T02:52:04;5.10;99.90
16801;DHT22;8518;53.236;10.384;2023-04-07T02:54:30;3.80;99.90
16801;DHT22;8518;53.236;10.384;2023-04-07T02:56:55;3.70;99.90
16801;DHT22;8518;53.236;10.384;2023-04-07T02:59:21;3.50;99.90
16801;DHT22;8518;53.236;10.384;2023-04-07T03:01:47;3.70;99.90
16801;DHT22;8518;53.236;10.384;2023-04-07T03:07:34;3.70;99.90
16801;DHT22;8518;53.236;10.384;2023-04-07T03:10:00;3.70;99.90
16801;DHT22;8518;53.236;10.384;2023-04-07T03:15:48;5.10;99.90
16801;DHT22;8518;53.236;10.384;2023-04-07T03:18:14;3.70;99.90
16801;DHT22;8518;53.236;10.384;2023-04-07T03:20:41;3.50;99.90
16801;DHT22;8518;53.236;10.384;2023-04-07T03:26:28;3.50;99.90
16801;DHT22;8518;53.236;10.384;2023-04-07T03:28:55;4.90;99.90
16801;DHT22;8518;53.236;10.384;2023-04-07T03:31:21;3.40;99.90
16801;DHT22;8518;53.236;10.384;2023-04-07T03:37:08;3.50;99.90
16801;DHT22;8518;53.236;10.384;2023-04-07T03:39:34;3.40;99.90
16801;DHT22;8518;53.236;10.384;2023-04-07T03:42:02;3.50;99.90
16801;DHT22;8518;53.236;10.384;2023-04-07T03:44:28;3.60;99.90
16801;DHT22;8518;53.236;10.384;2023-04-07T03:46:53;3.50;99.90
16801;DHT22;8518;53.236;10.384;2023-04-07T03:49:19;3.40;99.90
16801;DHT22;8518;53.236;10.384;2023-04-07T03:51:45;3.50;99.90
16801;DHT22;8518;53.236;10.384;2023-04-07T03:57:33;3.40;99.90
16801;DHT22;8518;53.236;10.384;2023-04-07T03:59:58;2.90;99.90
16801;DHT22;8518;53.236;10.384;2023-04-07T04:02:24;3.30;99.90
16801;DHT22;8518;53.236;10.384;2023-04-07T04:04:49;3.30;99.90
16801;DHT22;8518;53.236;10.384;2023-04-07T04:07:15;3.10;99.90
16801;DHT22;8518;53.236;10.384;2023-04-07T04:09:40;3.10;99.90
16801;DHT22;8518;53.236;10.384;2023-04-07T04:12:06;5.10;99.90
16801;DHT22;8518;53.236;10.384;2023-04-07T04:14:32;3.30;99.90
16801;DHT22;8518;53.236;10.384;2023-04-07T04:16:57;3.40;99.90
16801;DHT22;8518;53.236;10.384;2023-04-07T04:19:23;3.20;99.90
16801;DHT22;8518;53.236;10.384;2023-04-07T04:21:49;3.10;99.90
16801;DHT22;8518;53.236;10.384;2023-04-07T04:27:37;3.20;99.90
16801;DHT22;8518;53.236;10.384;2023-04-07T04:33:24;3.20;99.90
16801;DHT22;8518;53.236;10.384;2023-04-07T04:35:50;3.10;99.90
16801;DHT22;8518;53.236;10.384;2023-04-07T04:38:16;3.10;99.90
16801;DHT22;8518;53.236;10.384;2023-04-07T04:40:41;3.10;99.90
16801;DHT22;8518;53.236;10.384;2023-04-07T04:46:29;3.00;99.90
16801;DHT22;8518;53.236;10.384;2023-04-07T04:48:56;3.00;99.90
16801;DHT22;8518;53.236;10.384;2023-04-07T04:51:22;4.70;99.90
16801;DHT22;8518;53.236;10.384;2023-04-07T04:57:10;3.00;99.90
16801;DHT22;8518;53.236;10.384;2023-04-07T04:59:35;2.90;99.90
16801;DHT22;8518;53.236;10.384;2023-04-07T05:02:01;2.90;99.90
16801;DHT22;8518;53.236;10.384;2023-04-07T05:04:26;2.70;99.90
16801;DHT22;8518;53.236;10.384;2023-04-07T05:06:52;2.90;99.90
16801;DHT22;8518;53.236;10.384;2023-04-07T05:09:18;3.00;99.90
16801;DHT22;8518;53.236;10.384;2023-04-07T05:11:43;3.00;99.90
16801;DHT22;8518;53.236;10.384;2023-04-07T05:17:31;3.00;99.90
16801;DHT22;8518;53.236;10.384;2023-04-07T05:19:57;3.10;99.90
16801;DHT22;8518;53.236;10.384;2023-04-07T05:22:23;3.20;99.90
16801;DHT22;8518;53.236;10.384;2023-04-07T05:24:48;3.20;99.90
16801;DHT22;8518;53.236;10.384;2023-04-07T05:27:14;3.30;99.90
16801;DHT22;8518;53.236;10.384;2023-04-07T05:29:39;3.20;99.90
16801;DHT22;8518;53.236;10.384;2023-04-07T05:32:05;3.10;99.90
16801;DHT22;8518;53.236;10.384;2023-04-07T05:34:31;3.40;99.90
16801;DHT22;8518;53.236;10.384;2023-04-07T05:36:57;3.40;99.90
16801;DHT22;8518;53.236;10.384;2023-04-07T05:39:22;3.50;99.90
16801;DHT22;8518;53.236;10.384;2023-04-07T05:41:48;3.70;99.90
16801;DHT22;8518;53.236;10.384;2023-04-07T05:47:36;4.00;99.90
16801;DHT22;8518;53.236;10.384;2023-04-07T05:50:01;3.90;99.90
16801;DHT22;8518;53.236;10.384;2023-04-07T05:55:49;4.30;99.90
16801;DHT22;8518;53.236;10.384;2023-04-07T05:58:15;4.10;99.90
16801;DHT22;8518;53.236;10.384;2023-04-07T06:00:40;4.60;99.90
16801;DHT22;8518;53.236;10.384;2023-04-07T06:06:28;4.80;99.90
16801;DHT22;8518;53.236;10.384;2023-04-07T06:08:54;5.00;99.90
16801;DHT22;8518;53.236;10.384;2023-04-07T06:11:19;5.20;99.90
16801;DHT22;8518;53.236;10.384;2023-04-07T06:17:07;5.50;99.90
16801;DHT22;8518;53.236;10.384;2023-04-07T06:19:33;5.70;99.90
16801;DHT22;8518;53.236;10.384;2023-04-07T06:21:58;6.30;99.90
16801;DHT22;8518;53.236;10.384;2023-04-07T06:24:24;5.80;99.90
16801;DHT22;8518;53.236;10.384;2023-04-07T06:26:51;6.00;99.90
16801;DHT22;8518;53.236;10.384;2023-04-07T06:29:17;6.10;99.90
16801;DHT22;8518;53.236;10.384;2023-04-07T06:31:42;7.90;99.90
16801;DHT22;8518;53.236;10.384;2023-04-07T06:37:30;6.40;99.90
16801;DHT22;8518;53.236;10.384;2023-04-07T06:39:56;6.60;99.90
16801;DHT22;8518;53.236;10.384;2023-04-07T06:42:22;7.00;99.90
16801;DHT22;8518;53.236;10.384;2023-04-07T06:44:47;6.80;99.90
16801;DHT22;8518;53.236;10.384;2023-04-07T06:47:13;7.20;99.90
16801;DHT22;8518;53.236;10.384;2023-04-07T06:49:38;7.20;99.90
16801;DHT22;8518;53.236;10.384;2023-04-07T06:52:04;7.10;99.90
16801;DHT22;8518;53.236;10.384;2023-04-07T06:54:30;8.50;99.90
16801;DHT22;8518;53.236;10.384;2023-04-07T06:56:56;7.60;99.90
16801;DHT22;8518;53.236;10.384;2023-04-07T06:59:21;7.80;99.90
16801;DHT22;8518;53.236;10.384;2023-04-07T07:01:47;7.90;99.90
16801;DHT22;8518;53.236;10.384;2023-04-07T07:07:35;8.00;99.90
16801;DHT22;8518;53.236;10.384;2023-04-07T07:10:01;9.90;99.90
16801;DHT22;8518;53.236;10.384;2023-04-07T07:15:50;8.60;99.10
16801;DHT22;8518;53.236;10.384;2023-04-07T07:18:16;9.60;99.00
16801;DHT22;8518;53.236;10.384;2023-04-07T07:20:42;9.20;98.10
16801;DHT22;8518;53.236;10.384;2023-04-07T07:26:30;9.80;96.80
16801;DHT22;8518;53.236;10.384;2023-04-07T07:28:55;10.00;96.00
16801;DHT22;8518;53.236;10.384;2023-04-07T07:31:21;9.70;95.60
16801;DHT22;8518;53.236;10.384;2023-04-07T07:37:09;10.20;94.80
16801;DHT22;8518;53.236;10.384;2023-04-07T07:42:57;11.00;93.20
16801;DHT22;8518;53.236;10.384;2023-04-07T07:45:23;11.80;92.80
16801;DHT22;8518;53.236;10.384;2023-04-07T07:47:48;11.70;91.80
16801;DHT22;8518;53.236;10.384;2023-04-07T07:50:14;13.20;91.40
16801;DHT22;8518;53.236;10.384;2023-04-07T07:56:02;11.90;90.70
16801;DHT22;8518;53.236;10.384;2023-04-07T08:01:50;12.00;88.60
16801;DHT22;8518;53.236;10.384;2023-04-07T08:07:38;13.60;83.50
16801;DHT22;8518;53.236;10.384;2023-04-07T08:10:08;13.80;82.60
16801;DHT22;8518;53.236;10.384;2023-04-07T08:15:58;14.50;76.60
16801;DHT22;8518;53.236;10.384;2023-04-07T08:18:28;16.80;75.00
16801;DHT22;8518;53.236;10.384;2023-04-07T08:20:54;17.30;71.90
16801;DHT22;8518;53.236;10.384;2023-04-07T08:26:42;19.70;56.70
16801;DHT22;8518;53.236;10.384;2023-04-07T08:32:43;19.00;54.30
16801;DHT22;8518;53.236;10.384;2023-04-07T08:35:09;19.10;52.20
16801;DHT22;8518;53.236;10.384;2023-04-07T08:37:36;19.70;52.10
16801;DHT22;8518;53.236;10.384;2023-04-07T08:40:03;21.20;50.60
16801;DHT22;8518;53.236;10.384;2023-04-07T08:45:52;24.10;41.70
16801;DHT22;8518;53.236;10.384;2023-04-07T08:48:22;23.80;39.90
16801;DHT22;8518;53.236;10.384;2023-04-07T08:50:49;23.10;39.20
16801;DHT22;8518;53.236;10.384;2023-04-07T08:56:40;23.10;39.70
16801;DHT22;8518;53.236;10.384;2023-04-07T09:02:28;23.90;36.20
16801;DHT22;8518;53.236;10.384;2023-04-07T09:04:54;22.40;36.30
16801;DHT22;8518;53.236;10.384;2023-04-07T09:07:19;20.60;38.80
16801;DHT22;8518;53.236;10.384;2023-04-07T09:09:46;20.90;39.60
16801;DHT22;8518;53.236;10.384;2023-04-07T09:12:12;21.40;38.80
16801;DHT22;8518;53.236;10.384;2023-04-07T09:14:37;22.50;37.40
16801;DHT22;8518;53.236;10.384;2023-04-07T09:17:03;23.10;36.20
16801;DHT22;8518;53.236;10.384;2023-04-07T09:19:32;22.60;35.60
16801;DHT22;8518;53.236;10.384;2023-04-07T09:21:58;22.40;36.60
16801;DHT22;8518;53.236;10.384;2023-04-07T09:24:29;22.30;36.00
16801;DHT22;8518;53.236;10.384;2023-04-07T09:27:12;21.50;36.50
16801;DHT22;8518;53.236;10.384;2023-04-07T09:29:42;20.70;37.90
16801;DHT22;8518;53.236;10.384;2023-04-07T09:32:08;21.40;38.70
16801;DHT22;8518;53.236;10.384;2023-04-07T09:34:39;21.50;37.60
16801;DHT22;8518;53.236;10.384;2023-04-07T09:37:05;21.30;36.90
16801;DHT22;8518;53.236;10.384;2023-04-07T09:39:32;19.90;38.70
16801;DHT22;8518;53.236;10.384;2023-04-07T09:42:05;19.80;39.10
16801;DHT22;8518;53.236;10.384;2023-04-07T09:44:38;20.10;37.80
16801;DHT22;8518;53.236;10.384;2023-04-07T09:47:11;20.40;37.50
16801;DHT22;8518;53.236;10.384;2023-04-07T09:49:57;20.70;37.50
16801;DHT22;8518;53.236;10.384;2023-04-07T09:55:52;21.70;36.20
16801;DHT22;8518;53.236;10.384;2023-04-07T09:58:18;21.00;36.00
16801;DHT22;8518;53.236;10.384;2023-04-07T10:00:47;21.00;36.70
16801;DHT22;8518;53.236;10.384;2023-04-07T10:06:35;21.20;35.60
16801;DHT22;8518;53.236;10.384;2023-04-07T10:09:01;20.20;37.10
16801;DHT22;8518;53.236;10.384;2023-04-07T10:11:30;21.00;36.80
16801;DHT22;8518;53.236;10.384;2023-04-07T10:17:20;23.10;33.80
16801;DHT22;8518;53.236;10.384;2023-04-07T10:19:48;23.10;34.00
16801;DHT22;8518;53.236;10.384;2023-04-07T10:22:16;23.20;34.30
16801;DHT22;8518;53.236;10.384;2023-04-07T10:24:59;23.70;32.80
16801;DHT22;8518;53.236;10.384;2023-04-07T10:27:34;23.40;32.70
16801;DHT22;8518;53.236;10.384;2023-04-07T10:30:02;25.20;33.00
16801;DHT22;8518;53.236;10.384;2023-04-07T10:36:05;26.40;29.60
16801;DHT22;8518;53.236;10.384;2023-04-07T10:38:31;27.20;29.60
16801;DHT22;8518;53.236;10.384;2023-04-07T10:40:58;26.90;29.10
16801;DHT22;8518;53.236;10.384;2023-04-07T10:49:15;29.30;27.70
16801;DHT22;8518;53.236;10.384;2023-04-07T10:54:37;27.30;28.60
16801;DHT22;8518;53.236;10.384;2023-04-07T10:57:03;28.00;28.40
16801;DHT22;8518;53.236;10.384;2023-04-07T10:59:30;29.40;27.50
16801;DHT22;8518;53.236;10.384;2023-04-07T11:04:47;28.50;26.80
16801;DHT22;8518;53.236;10.384;2023-04-07T11:07:14;28.20;26.70
16801;DHT22;8518;53.236;10.384;2023-04-07T11:09:41;27.70;27.20
16801;DHT22;8518;53.236;10.384;2023-04-07T11:12:07;28.70;27.20
16801;DHT22;8518;53.236;10.384;2023-04-07T11:14:33;29.50;26.50
16801;DHT22;8518;53.236;10.384;2023-04-07T11:17:02;30.90;26.60
16801;DHT22;8518;53.236;10.384;2023-04-07T11:19:29;30.70;24.80
16801;DHT22;8518;53.236;10.384;2023-04-07T11:22:15;28.70;25.90
16801;DHT22;8518;53.236;10.384;2023-04-07T11:24:41;28.30;26.00
16801;DHT22;8518;53.236;10.384;2023-04-07T11:27:14;28.20;25.70
16801;DHT22;8518;53.236;10.384;2023-04-07T11:29:41;27.40;26.70
16801;DHT22;8518;53.236;10.384;2023-04-07T11:32:06;28.30;27.30
16801;DHT22;8518;53.236;10.384;2023-04-07T11:34:34;30.00;25.00
16801;DHT22;8518;53.236;10.384;2023-04-07T11:37:19;30.60;24.40
16801;DHT22;8518;53.236;10.384;2023-04-07T11:39:57;30.00;24.80
16801;DHT22;8518;53.236;10.384;2023-04-07T11:45:44;32.10;23.70
16801;DHT22;8518;53.236;10.384;2023-04-07T11:48:25;32.70;23.30
16801;DHT22;8518;53.236;10.384;2023-04-07T11:50:51;33.50;22.80
16801;DHT22;8518;53.236;10.384;2023-04-07T11:56:45;32.30;22.10
16801;DHT22;8518;53.236;10.384;2023-04-07T11:59:19;32.70;22.60
16801;DHT22;8518;53.236;10.384;2023-04-07T12:01:45;32.60;21.80
16801;DHT22;8518;53.236;10.384;2023-04-07T12:07:33;29.00;22.40
16801;DHT22;8518;53.236;10.384;2023-04-07T12:10:20;28.70;23.50
16801;DHT22;8518;53.236;10.384;2023-04-07T12:16:08;29.10;23.10
16801;DHT22;8518;53.236;10.384;2023-04-07T12:21:56;31.30;22.00
16801;DHT22;8518;53.236;10.384;2023-04-07T12:24:22;29.90;22.50
16801;DHT22;8518;53.236;10.384;2023-04-07T12:26:48;30.30;22.20
16801;DHT22;8518;53.236;10.384;2023-04-07T12:29:15;31.00;22.10
16801;DHT22;8518;53.236;10.384;2023-04-07T12:31:41;29.70;21.30
16801;DHT22;8518;53.236;10.384;2023-04-07T12:37:29;28.00;23.10
16801;DHT22;8518;53.236;10.384;2023-04-07T12:39:56;29.00;24.20
16801;DHT22;8518;53.236;10.384;2023-04-07T12:42:21;31.00;23.80
16801;DHT22;8518;53.236;10.384;2023-04-07T12:44:47;32.20;22.70
16801;DHT22;8518;53.236;10.384;2023-04-07T12:47:13;32.90;22.00
16801;DHT22;8518;53.236;10.384;2023-04-07T12:49:41;33.10;22.40
16801;DHT22;8518;53.236;10.384;2023-04-07T12:52:10;33.80;21.00
16801;DHT22;8518;53.236;10.384;2023-04-07T12:54:36;33.90;21.10
16801;DHT22;8518;53.236;10.384;2023-04-07T12:57:02;33.90;20.70
16801;DHT22;8518;53.236;10.384;2023-04-07T12:59:28;32.70;20.70
16801;DHT22;8518;53.236;10.384;2023-04-07T13:01:54;30.60;21.10
16801;DHT22;8518;53.236;10.384;2023-04-07T13:07:42;27.70;24.50
16801;DHT22;8518;53.236;10.384;2023-04-07T13:10:08;28.60;24.20
16801;DHT22;8518;53.236;10.384;2023-04-07T13:15:57;29.80;22.80
16801;DHT22;8518;53.236;10.384;2023-04-07T13:18:22;28.00;24.50
16801;DHT22;8518;53.236;10.384;2023-04-07T13:20:48;26.10;24.30
16801;DHT22;8518;53.236;10.384;2023-04-07T13:26:36;22.10;27.00
16801;DHT22;8518;53.236;10.384;2023-04-07T13:32:27;20.10;30.10
16801;DHT22;8518;53.236;10.384;2023-04-07T13:34:53;19.90;32.10
16801;DHT22;8518;53.236;10.384;2023-04-07T13:37:19;20.00;32.70
16801;DHT22;8518;53.236;10.384;2023-04-07T13:39:45;20.10;31.80
16801;DHT22;8518;53.236;10.384;2023-04-07T13:42:13;20.00;33.00
16801;DHT22;8518;53.236;10.384;2023-04-07T13:44:45;19.80;32.60
16801;DHT22;8518;53.236;10.384;2023-04-07T13:47:12;19.50;34.20
16801;DHT22;8518;53.236;10.384;2023-04-07T13:49:46;19.40;34.40
16801;DHT22;8518;53.236;10.384;2023-04-07T13:52:12;19.70;33.00
16801;DHT22;8518;53.236;10.384;2023-04-07T13:54:38;19.50;33.30
16801;DHT22;8518;53.236;10.384;2023-04-07T13:57:04;19.60;32.40
16801;DHT22;8518;53.236;10.384;2023-04-07T13:59:30;19.20;33.00
16801;DHT22;8518;53.236;10.384;2023-04-07T14:01:56;18.80;34.40
16801;DHT22;8518;53.236;10.384;2023-04-07T14:07:43;18.00;34.60
16801;DHT22;8518;53.236;10.384;2023-04-07T14:10:09;17.50;38.40
16801;DHT22;8518;53.236;10.384;2023-04-07T14:15:57;18.70;37.40
16801;DHT22;8518;53.236;10.384;2023-04-07T14:18:23;19.30;37.10
16801;DHT22;8518;53.236;10.384;2023-04-07T14:20:49;19.50;36.90
16801;DHT22;8518;53.236;10.384;2023-04-07T14:26:37;19.30;37.50
16801;DHT22;8518;53.236;10.384;2023-04-07T14:29:02;19.00;37.40
16801;DHT22;8518;53.236;10.384;2023-04-07T14:31:28;18.40;39.70
16801;DHT22;8518;53.236;10.384;2023-04-07T14:37:16;17.10;44.80
16801;DHT22;8518;53.236;10.384;2023-04-07T14:39:43;16.10;46.10
16801;DHT22;8518;53.236;10.384;2023-04-07T14:42:08;15.60;47.20
16801;DHT22;8518;53.236;10.384;2023-04-07T14:44:34;15.30;48.20
16801;DHT22;8518;53.236;10.384;2023-04-07T14:46:59;14.70;49.10
16801;DHT22;8518;53.236;10.384;2023-04-07T14:49:26;14.30;51.90
16801;DHT22;8518;53.236;10.384;2023-04-07T14:51:52;14.30;52.60
16801;DHT22;8518;53.236;10.384;2023-04-07T14:57:40;13.80;55.50
16801;DHT22;8518;53.236;10.384;2023-04-07T15:00:07;13.90;56.60
16801;DHT22;8518;53.236;10.384;2023-04-07T15:05:55;14.50;57.40
16801;DHT22;8518;53.236;10.384;2023-04-07T15:08:20;14.80;57.70
16801;DHT22;8518;53.236;10.384;2023-04-07T15:10:49;15.00;56.80
16801;DHT22;8518;53.236;10.384;2023-04-07T15:16:37;14.90;56.60
16801;DHT22;8518;53.236;10.384;2023-04-07T15:19:09;14.40;55.60
16801;DHT22;8518;53.236;10.384;2023-04-07T15:21:34;14.10;57.50
16801;DHT22;8518;53.236;10.384;2023-04-07T15:27:22;14.10;57.40
16801;DHT22;8518;53.236;10.384;2023-04-07T15:29:48;13.90;58.00
16801;DHT22;8518;53.236;10.384;2023-04-07T15:32:13;13.80;60.00
16801;DHT22;8518;53.236;10.384;2023-04-07T15:34:39;13.60;61.20
16801;DHT22;8518;53.236;10.384;2023-04-07T15:37:05;14.50;62.60
16801;DHT22;8518;53.236;10.384;2023-04-07T15:39:32;13.00;63.60
16801;DHT22;8518;53.236;10.384;2023-04-07T15:41:58;12.70;63.80
16801;DHT22;8518;53.236;10.384;2023-04-07T15:44:24;13.80;66.50
16801;DHT22;8518;53.236;10.384;2023-04-07T15:46:53;12.40;67.40
16801;DHT22;8518;53.236;10.384;2023-04-07T15:49:18;12.30;69.90
16801;DHT22;8518;53.236;10.384;2023-04-07T15:51:46;12.30;74.50
16801;DHT22;8518;53.236;10.384;2023-04-07T15:57:34;11.40;82.40
16801;DHT22;8518;53.236;10.384;2023-04-07T16:00:00;11.90;86.90
16801;DHT22;8518;53.236;10.384;2023-04-07T16:02:28;10.90;90.30
16801;DHT22;8518;53.236;10.384;2023-04-07T16:04:53;10.80;91.90
16801;DHT22;8518;53.236;10.384;2023-04-07T16:07:19;11.00;93.30
16801;DHT22;8518;53.236;10.384;2023-04-07T16:09:45;10.60;94.70
16801;DHT22;8518;53.236;10.384;2023-04-07T16:12:10;10.60;95.50
16801;DHT22;8518;53.236;10.384;2023-04-07T16:14:36;10.40;96.20
16801;DHT22;8518;53.236;10.384;2023-04-07T16:17:02;10.70;96.50
16801;DHT22;8518;53.236;10.384;2023-04-07T16:19:28;10.70;97.80
16801;DHT22;8518;53.236;10.384;2023-04-07T16:21:54;10.70;99.60
16801;DHT22;8518;53.236;10.384;2023-04-07T16:27:43;10.30;99.80
16801;DHT22;8518;53.236;10.384;2023-04-07T16:30:12;10.20;99.90
16801;DHT22;8518;53.236;10.384;2023-04-07T16:36:05;10.10;99.90
16801;DHT22;8518;53.236;10.384;2023-04-07T16:38:31;10.00;99.90
16801;DHT22;8518;53.236;10.384;2023-04-07T16:40:56;11.10;99.90
16801;DHT22;8518;53.236;10.384;2023-04-07T16:46:44;10.00;99.90
16801;DHT22;8518;53.236;10.384;2023-04-07T16:52:32;9.90;99.90
16801;DHT22;8518;53.236;10.384;2023-04-07T16:55:00;9.80;99.90
16801;DHT22;8518;53.236;10.384;2023-04-07T16:57:26;9.80;99.90
16801;DHT22;8518;53.236;10.384;2023-04-07T16:59:52;9.50;99.90
16801;DHT22;8518;53.236;10.384;2023-04-07T17:02:17;9.60;99.90
16801;DHT22;8518;53.236;10.384;2023-04-07T17:04:43;9.20;99.90
16801;DHT22;8518;53.236;10.384;2023-04-07T17:07:09;9.90;99.90
16801;DHT22;8518;53.236;10.384;2023-04-07T17:09:35;9.10;99.90
16801;DHT22;8518;53.236;10.384;2023-04-07T17:12:02;9.70;99.90
16801;DHT22;8518;53.236;10.384;2023-04-07T17:14:29;8.90;99.90
16801;DHT22;8518;53.236;10.384;2023-04-07T17:16:55;10.10;99.90
16801;DHT22;8518;53.236;10.384;2023-04-07T17:19:20;8.60;99.90
16801;DHT22;8518;53.236;10.384;2023-04-07T17:21:46;8.70;99.90
16801;DHT22;8518;53.236;10.384;2023-04-07T17:27:41;8.70;99.90
16801;DHT22;8518;53.236;10.384;2023-04-07T17:30:07;8.60;99.90
16801;DHT22;8518;53.236;10.384;2023-04-07T17:35:55;8.30;99.90
16801;DHT22;8518;53.236;10.384;2023-04-07T17:38:20;8.20;99.90
16801;DHT22;8518;53.236;10.384;2023-04-07T17:40:46;8.40;99.90
16801;DHT22;8518;53.236;10.384;2023-04-07T17:46:34;8.10;99.90
16801;DHT22;8518;53.236;10.384;2023-04-07T17:48:59;8.00;99.90
16801;DHT22;8518;53.236;10.384;2023-04-07T17:51:26;7.80;99.90
16801;DHT22;8518;53.236;10.384;2023-04-07T17:57:15;7.90;99.90
16801;DHT22;8518;53.236;10.384;2023-04-07T17:59:41;7.80;99.90
16801;DHT22;8518;53.236;10.384;2023-04-07T18:02:17;7.70;99.90
16801;DHT22;8518;53.236;10.384;2023-04-07T18:04:43;7.70;99.90
16801;DHT22;8518;53.236;10.384;2023-04-07T18:07:13;7.60;99.90
16801;DHT22;8518;53.236;10.384;2023-04-07T18:09:39;7.70;99.90
16801;DHT22;8518;53.236;10.384;2023-04-07T18:12:07;8.30;99.90
16801;DHT22;8518;53.236;10.384;2023-04-07T18:14:33;8.60;99.90
16801;DHT22;8518;53.236;10.384;2023-04-07T18:16:58;8.10;99.90
16801;DHT22;8518;53.236;10.384;2023-04-07T18:19:24;7.90;99.90
16801;DHT22;8518;53.236;10.384;2023-04-07T18:21:50;8.80;99.90
16801;DHT22;8518;53.236;10.384;2023-04-07T18:27:37;7.60;99.90
16801;DHT22;8518;53.236;10.384;2023-04-07T18:30:03;7.60;99.90
16801;DHT22;8518;53.236;10.384;2023-04-07T18:35:51;7.60;99.90
16801;DHT22;8518;53.236;10.384;2023-04-07T18:38:16;7.70;99.90
16801;DHT22;8518;53.236;10.384;2023-04-07T18:40:42;7.50;99.90
16801;DHT22;8518;53.236;10.384;2023-04-07T18:46:29;7.30;99.90
16801;DHT22;8518;53.236;10.384;2023-04-07T18:48:55;7.20;99.90
16801;DHT22;8518;53.236;10.384;2023-04-07T18:51:21;7.20;99.90
16801;DHT22;8518;53.236;10.384;2023-04-07T18:57:08;7.20;99.90
16801;DHT22;8518;53.236;10.384;2023-04-07T19:02:59;7.10;99.90
16801;DHT22;8518;53.236;10.384;2023-04-07T19:05:24;7.10;99.90
16801;DHT22;8518;53.236;10.384;2023-04-07T19:07:50;7.20;99.90
16801;DHT22;8518;53.236;10.384;2023-04-07T19:10:16;7.20;99.90
16801;DHT22;8518;53.236;10.384;2023-04-07T19:16:04;7.30;99.90
16801;DHT22;8518;53.236;10.384;2023-04-07T19:18:31;7.40;99.90
16801;DHT22;8518;53.236;10.384;2023-04-07T19:20:57;8.20;99.90
16801;DHT22;8518;53.236;10.384;2023-04-07T19:26:45;7.20;99.90
16801;DHT22;8518;53.236;10.384;2023-04-07T19:29:14;7.10;99.90
16801;DHT22;8518;53.236;10.384;2023-04-07T19:31:40;7.20;99.90
16801;DHT22;8518;53.236;10.384;2023-04-07T19:37:28;7.20;99.90
16801;DHT22;8518;53.236;10.384;2023-04-07T19:39:54;7.20;99.90
16801;DHT22;8518;53.236;10.384;2023-04-07T19:42:20;7.60;99.90
16801;DHT22;8518;53.236;10.384;2023-04-07T19:44:46;7.20;99.90
16801;DHT22;8518;53.236;10.384;2023-04-07T19:47:12;7.20;99.90
16801;DHT22;8518;53.236;10.384;2023-04-07T19:49:38;7.20;99.90
16801;DHT22;8518;53.236;10.384;2023-04-07T19:52:05;7.20;99.90
16801;DHT22;8518;53.236;10.384;2023-04-07T19:54:45;7.30;99.90
16801;DHT22;8518;53.236;10.384;2023-04-07T19:57:11;8.20;99.90
16801;DHT22;8518;53.236;10.384;2023-04-07T19:59:40;8.00;99.90
16801;DHT22;8518;53.236;10.384;2023-04-07T20:02:09;7.70;99.90
16801;DHT22;8518;53.236;10.384;2023-04-07T20:04:34;7.30;99.90
16801;DHT22;8518;53.236;10.384;2023-04-07T20:07:00;7.30;99.90
16801;DHT22;8518;53.236;10.384;2023-04-07T20:09:26;7.40;99.90
16801;DHT22;8518;53.236;10.384;2023-04-07T20:11:53;7.60;99.90
16801;DHT22;8518;53.236;10.384;2023-04-07T20:17:41;7.50;99.90
16801;DHT22;8518;53.236;10.384;2023-04-07T20:20:06;7.40;99.90
16801;DHT22;8518;53.236;10.384;2023-04-07T20:25:54;7.30;99.90
16801;DHT22;8518;53.236;10.384;2023-04-07T20:28:20;7.30;99.90
16801;DHT22;8518;53.236;10.384;2023-04-07T20:30:46;7.30;99.90
16801;DHT22;8518;53.236;10.384;2023-04-07T20:36:34;7.20;99.90
16801;DHT22;8518;53.236;10.384;2023-04-07T20:39:00;7.20;99.90
16801;DHT22;8518;53.236;10.384;2023-04-07T20:41:25;7.10;99.90